Baton Rouge Metropolitan, Ryan Field
KBTR : rendu visible

Aérodrome :











RETROUVEZ-NOUS SUR...

 
LOGIN :

S'inscrire | Disclaimer

   EN    FR    IT 

 









Légende :    VFR   VFR Marginal   IFR   IFR Intensif   IFR Très Intensif
Visi : 
Plafond : 
>= 8 km
>= 3000ft
5 à 8 km
1000 à 3000 ft
1500m à 5 km
500 à 1000 ft
800 à 1500m
200 à 500 ft
< 800m
< 200 ft
Symboles :   Orages  Brouillard  Fortes neiges  Fortes précipitations  Vent > 20 kt







- Altitude de l'aérodrome : 70 ft
- Code IATA : BTR


KBTR - Baton Rouge Metropolitan, Ryan Field

DERNIER METAR :
  • 261753Z 31010G17KT 270V360 10SM CLR 20/08 A3024 RMK AO2 SLP237 T02000078 10200 20111 58007

METARs EXPIRÉS :
  • 261653Z 02009G14KT 10SM FEW037 18/08 A3025 RMK AO2 SLP244 T01830083
  • 261553Z 02011KT 10SM CLR 17/08 A3026 RMK AO2 SLP247 T01720083

TAF KBTR
Valide du 26 à 18h jusqu'au 27 à 18h UTC


261720Z 2618/2718 01009G16KT P6SM SKC
FM270300 VRB04KT P6SM SKC
FIR KZHU / Amérique du Nord



MET'MAP, la Météo Aéronautique d'un coup d'oeil ! - Copyright ORBIFLY Décembre 2007 - Disclaimer

ORBIFLY MET'MAP TEAM :

Programmation & Développement : Alexandra Zaïnal
Conception & Développement : Baudouin d'Aumeries
Co-Programmation & Développement : Marc-Olivier Méhu
Soutien technique & logistique : Manuel Goepfert

Contact : metmap@orbifly.com




SOURCES & CREDITS :

   NOAA       Earth
Advisory